createdAt,value
2022-08-11T00:00:33.151Z,61.80
2022-08-11T00:10:37.555Z,62.48
2022-08-11T00:20:44.549Z,63.31
2022-08-11T00:30:46.827Z,63.79
2022-08-11T00:41:10.418Z,64.73
2022-08-11T00:51:56.718Z,65.76
2022-08-11T01:02:11.996Z,66.58
2022-08-11T01:12:40.784Z,67.56
2022-08-11T01:22:42.911Z,67.44
2022-08-11T01:33:04.052Z,68.28
2022-08-11T01:43:46.515Z,68.75
2022-08-11T01:54:26.358Z,69.62
2022-08-11T02:04:34.224Z,70.99
2022-08-11T02:15:05.611Z,71.21
2022-08-11T02:25:22.255Z,72.46
2022-08-11T02:35:36.825Z,73.16
2022-08-11T02:46:18.410Z,73.47
2022-08-11T02:56:38.253Z,74.23
2022-08-11T03:06:59.446Z,74.70
2022-08-11T03:17:25.013Z,75.35
2022-08-11T03:27:30.975Z,76.13
2022-08-11T03:38:00.808Z,76.28
2022-08-11T03:48:21.630Z,76.59
2022-08-11T03:58:58.116Z,76.74
2022-08-11T04:09:37.663Z,77.52
2022-08-11T04:20:16.465Z,78.39
2022-08-11T04:30:59.470Z,79.20
2022-08-11T04:41:34.747Z,80.20
2022-08-11T04:52:37.472Z,80.16
2022-08-11T05:02:49.212Z,81.00
2022-08-11T05:13:17.930Z,80.22
2022-08-11T05:23:44.777Z,80.13
2022-08-11T05:34:15.924Z,79.77
2022-08-11T05:44:40.328Z,79.93
2022-08-11T05:55:06.017Z,79.19
2022-08-11T06:05:12.009Z,77.41
2022-08-11T06:15:15.110Z,74.96
2022-08-11T06:25:18.345Z,73.93
2022-08-11T06:36:00.305Z,70.34
2022-08-11T06:46:10.389Z,69.23
2022-08-11T06:56:35.676Z,64.52
2022-08-11T07:07:37.758Z,63.81
2022-08-11T07:18:15.710Z,62.51
2022-08-11T07:28:43.150Z,59.64
2022-08-11T07:38:53.049Z,56.58
2022-08-11T07:49:20.212Z,53.18
2022-08-11T08:00:00.561Z,49.23
2022-08-11T08:10:29.057Z,45.72
2022-08-11T08:20:36.332Z,45.86
2022-08-11T08:30:50.151Z,44.79
2022-08-11T08:40:56.485Z,42.75
2022-08-11T08:51:23.209Z,41.42
2022-08-11T09:01:43.341Z,40.80
2022-08-11T09:11:51.869Z,39.96
2022-08-11T09:22:16.160Z,39.15
2022-08-11T09:32:35.921Z,39.80
2022-08-11T09:42:59.548Z,37.55
2022-08-11T09:53:36.241Z,38.61
2022-08-11T10:03:54.434Z,35.79
2022-08-11T10:14:33.098Z,37.77
2022-08-11T10:25:00.190Z,38.62
2022-08-11T10:35:08.408Z,36.68
2022-08-11T10:45:30.382Z,37.09
2022-08-11T10:55:52.633Z,35.83
2022-08-11T11:06:27.464Z,35.07
2022-08-11T11:16:47.727Z,33.32
2022-08-11T11:27:21.313Z,34.80
2022-08-11T11:37:26.678Z,31.99
2022-08-11T11:47:32.324Z,33.92
2022-08-11T11:57:58.636Z,30.43
2022-08-11T12:08:13.464Z,33.51
2022-08-11T12:18:18.252Z,32.17
2022-08-11T12:28:25.796Z,32.51
2022-08-11T12:38:36.231Z,30.66
2022-08-11T12:49:06.401Z,27.81
2022-08-11T12:59:30.524Z,30.04
2022-08-11T13:09:34.814Z,28.40
2022-08-11T13:19:39.333Z,27.26
2022-08-11T13:29:49.760Z,29.66
2022-08-11T13:39:54.852Z,23.52
2022-08-11T13:49:58.789Z,24.77
2022-08-11T14:00:15.839Z,23.69
2022-08-11T14:10:33.996Z,27.12
2022-08-11T14:20:59.626Z,26.22
2022-08-11T14:31:06.207Z,25.79
2022-08-11T14:41:29.086Z,22.73
2022-08-11T14:51:34.288Z,25.24
2022-08-11T15:01:58.359Z,23.05
2022-08-11T15:12:32.552Z,24.50
2022-08-11T15:22:56.147Z,25.46
2022-08-11T15:33:29.229Z,26.50
2022-08-11T15:44:08.395Z,28.31
2022-08-11T15:54:20.316Z,26.85
2022-08-11T16:04:27.533Z,30.36
2022-08-11T16:14:55.425Z,27.45
2022-08-11T16:27:03.507Z,29.20
2022-08-11T16:35:45.209Z,28.33
2022-08-11T16:46:08.025Z,29.21
2022-08-11T16:56:17.503Z,28.89
2022-08-11T17:06:40.804Z,29.27
2022-08-11T17:16:49.595Z,32.03
2022-08-11T17:26:59.035Z,33.39
2022-08-11T17:37:04.035Z,33.75
2022-08-11T17:47:25.956Z,34.41
2022-08-11T17:57:49.225Z,35.04
2022-08-11T18:08:13.231Z,35.50
2022-08-11T18:18:34.453Z,35.80
2022-08-11T18:29:02.112Z,37.16
2022-08-11T18:39:28.627Z,38.23
2022-08-11T18:50:03.566Z,38.46
2022-08-11T19:00:27.120Z,40.81
2022-08-11T19:10:48.787Z,42.75
2022-08-11T19:21:12.349Z,44.13
2022-08-11T19:31:34.533Z,46.12
2022-08-11T19:41:58.006Z,49.16
2022-08-11T19:52:20.782Z,50.58
2022-08-11T20:02:42.417Z,51.97
2022-08-11T20:13:05.070Z,53.90
2022-08-11T20:23:28.909Z,54.92
2022-08-11T20:33:50.888Z,55.13
2022-08-11T20:44:16.547Z,56.44
2022-08-11T20:54:43.583Z,57.62
2022-08-11T21:05:05.272Z,59.11
2022-08-11T21:15:47.197Z,60.41
2022-08-11T21:26:15.687Z,61.85
2022-08-11T21:36:38.741Z,63.08
2022-08-11T21:47:01.061Z,63.99
2022-08-11T21:57:25.030Z,64.23
2022-08-11T22:07:47.483Z,64.15
2022-08-11T22:18:08.429Z,64.34
2022-08-11T22:28:29.492Z,64.07
2022-08-11T22:38:52.676Z,63.68
2022-08-11T22:49:14.914Z,63.37
2022-08-11T22:59:38.780Z,64.52
2022-08-11T23:09:59.925Z,65.38
2022-08-11T23:20:35.010Z,65.23
2022-08-11T23:31:01.081Z,66.97
2022-08-11T23:41:23.304Z,66.53
2022-08-11T23:51:45.685Z,66.95
